Time;durP1;ratioP1;P1;durP2;ratioP2;P2;SDS_P1;SDS_P2;PMS_P1;PMS_P2;Temp;Humidity;BMP_temperature;BMP_pressure;BME280_temperature;BME280_humidity;BME280_pressure;Samples;Min_cycle;Max_cycle;Signal;HPM_P1;HPM_P2
2023/04/09 00:01:38;;;;;;;15.23;12.02;;;0.80;99.90;;;;;;5023403;28;20418;-35
2023/04/09 00:04:06;;;;;;;14.18;9.98;;;0.70;99.90;;;;;;5021844;28;20041;-35
2023/04/09 00:06:33;;;;;;;15.90;9.98;;;0.80;99.90;;;;;;5023143;28;20052;-35
2023/04/09 00:09:01;;;;;;;20.83;12.00;;;0.80;99.90;;;;;;5022796;28;20053;-35
2023/04/09 00:11:28;;;;;;;16.23;11.15;;;0.80;99.90;;;;;;5022253;28;20057;-35
2023/04/09 00:13:57;;;;;;;15.90;12.20;;;0.90;99.90;;;;;;5022569;28;20053;-34
2023/04/09 00:16:24;;;;;;;17.73;11.73;;;0.90;99.90;;;;;;5023214;28;20049;-34
2023/04/09 00:18:53;;;;;;;19.38;11.32;;;1.00;99.90;;;;;;5021608;28;20053;-35
2023/04/09 00:21:21;;;;;;;15.05;11.10;;;1.00;99.90;;;;;;5023260;28;20493;-35
2023/04/09 00:23:48;;;;;;;16.70;12.75;;;0.80;99.90;;;;;;5015981;28;20046;-35
2023/04/09 00:26:16;;;;;;;17.92;12.07;;;0.90;99.90;;;;;;5018228;28;20084;-35
2023/04/09 00:28:44;;;;;;;17.65;11.57;;;0.90;99.90;;;;;;5005620;28;20442;-35
2023/04/09 00:31:12;;;;;;;15.80;11.00;;;0.80;99.90;;;;;;5022139;28;20429;-36
2023/04/09 00:33:40;;;;;;;18.10;13.80;;;0.90;99.90;;;;;;5022273;28;20477;-36
2023/04/09 00:36:07;;;;;;;13.90;10.35;;;0.90;99.90;;;;;;5030471;28;20065;-34
2023/04/09 00:38:35;;;;;;;16.83;13.25;;;1.00;99.90;;;;;;5021692;28;20053;-35
2023/04/09 00:41:02;;;;;;;17.27;12.98;;;1.00;99.90;;;;;;5023220;28;20061;-35
2023/04/09 00:43:30;;;;;;;17.35;11.35;;;1.00;99.90;;;;;;5022724;28;20049;-35
2023/04/09 00:45:59;;;;;;;16.02;10.32;;;1.00;99.90;;;;;;5024670;28;20061;-35
2023/04/09 00:48:27;;;;;;;17.65;11.55;;;1.00;99.90;;;;;;5027220;28;20064;-35
2023/04/09 00:50:55;;;;;;;16.60;11.35;;;1.00;99.90;;;;;;5024831;28;20045;-35
2023/04/09 00:53:24;;;;;;;12.75;9.32;;;1.00;99.90;;;;;;5013142;28;20041;-35
2023/04/09 00:55:53;;;;;;;15.55;11.20;;;1.00;99.90;;;;;;5026795;28;20056;-35
2023/04/09 00:58:20;;;;;;;15.95;11.40;;;1.10;99.90;;;;;;5026769;28;20034;-35
2023/04/09 01:00:48;;;;;;;16.05;10.30;;;1.10;99.90;;;;;;5025223;28;20409;-36
2023/04/09 01:03:16;;;;;;;18.05;10.95;;;1.10;99.90;;;;;;5025092;28;20098;-35
2023/04/09 01:06:04;;;;;;;11.25;9.48;;;1.10;99.90;;;;;;5025350;28;20365;-35
2023/04/09 01:08:49;;;;;;;11.85;8.88;;;1.00;99.90;;;;;;5008623;28;20057;-35
2023/04/09 01:11:36;;;;;;;15.90;10.23;;;1.10;99.90;;;;;;5011573;28;20045;-36
2023/04/09 01:14:30;;;;;;;17.60;11.88;;;1.20;99.90;;;;;;5022848;28;20064;-36
2023/04/09 01:17:08;;;;;;;12.65;9.98;;;1.30;99.90;;;;;;4992519;28;20469;-35
2023/04/09 01:19:53;;;;;;;15.75;10.77;;;1.30;99.90;;;;;;5023460;28;20056;-35
2023/04/09 01:22:44;;;;;;;18.65;12.93;;;1.30;99.90;;;;;;5007324;28;20049;-35
2023/04/09 01:25:50;;;;;;;16.65;11.05;;;1.30;99.90;;;;;;5026500;28;20054;-35
2023/04/09 01:28:30;;;;;;;16.10;11.23;;;1.40;99.90;;;;;;5007818;28;20049;-35
2023/04/09 01:31:06;;;;;;;14.70;10.30;;;1.50;99.90;;;;;;5023624;28;20485;-47
2023/04/09 01:33:34;;;;;;;18.27;13.23;;;1.40;99.90;;;;;;5026152;28;20441;-48
2023/04/09 01:36:05;;;;;;;15.13;11.55;;;1.50;99.90;;;;;;5023961;28;20445;-48
2023/04/09 01:38:35;;;;;;;15.18;11.70;;;1.50;99.90;;;;;;5025364;28;20041;-48
2023/04/09 01:41:04;;;;;;;16.10;12.65;;;1.60;99.90;;;;;;5025486;28;20925;-48
2023/04/09 01:43:33;;;;;;;14.43;11.32;;;1.60;99.90;;;;;;5024296;28;20053;-48
2023/04/09 01:46:02;;;;;;;17.83;11.25;;;1.50;99.90;;;;;;5025632;28;20058;-48
2023/04/09 01:48:31;;;;;;;15.05;9.93;;;1.30;99.90;;;;;;5026829;28;20071;-48
2023/04/09 01:50:59;;;;;;;15.65;11.70;;;1.30;99.90;;;;;;5024104;28;20064;-48
2023/04/09 01:53:27;;;;;;;14.13;9.90;;;1.30;99.90;;;;;;5024077;28;20049;-48
2023/04/09 01:55:55;;;;;;;12.63;9.23;;;1.40;99.90;;;;;;5025562;28;20045;-48
2023/04/09 01:58:24;;;;;;;14.38;9.65;;;1.40;99.90;;;;;;5025276;28;20045;-48
2023/04/09 02:01:04;;;;;;;13.73;10.23;;;1.30;99.90;;;;;;5025393;28;20049;-48
2023/04/09 02:03:50;;;;;;;16.02;10.20;;;1.30;99.90;;;;;;5023967;28;20454;-48
2023/04/09 02:06:30;;;;;;;12.75;10.60;;;1.40;99.90;;;;;;5024319;28;20477;-48
2023/04/09 02:09:00;;;;;;;12.27;10.00;;;1.40;99.90;;;;;;5029458;28;20402;-48
2023/04/09 02:11:29;;;;;;;13.40;9.98;;;1.40;99.90;;;;;;5025343;28;21052;-48
2023/04/09 02:13:57;;;;;;;14.27;11.32;;;1.50;99.90;;;;;;5025433;28;20049;-47
2023/04/09 02:16:26;;;;;;;12.00;8.50;;;1.40;99.90;;;;;;5024003;28;20053;-48
2023/04/09 02:18:55;;;;;;;13.38;8.52;;;1.40;99.90;;;;;;5024457;28;20485;-48
2023/04/09 02:21:23;;;;;;;12.82;9.88;;;1.40;99.90;;;;;;5025318;28;20045;-47
2023/04/09 02:23:51;;;;;;;19.15;11.25;;;1.40;99.90;;;;;;5024731;28;20045;-48
2023/04/09 02:26:18;;;;;;;13.63;8.93;;;1.40;99.90;;;;;;5024277;28;20050;-47
2023/04/09 02:28:46;;;;;;;13.18;9.88;;;1.40;99.90;;;;;;5025172;28;20049;-48
2023/04/09 02:31:14;;;;;;;14.85;10.93;;;1.30;99.90;;;;;;5008199;28;20060;-48
2023/04/09 02:33:42;;;;;;;14.18;10.50;;;1.20;99.90;;;;;;5024233;28;20049;-46
2023/04/09 02:36:11;;;;;;;21.13;12.80;;;1.20;99.90;;;;;;5025599;28;20081;-42
2023/04/09 02:38:41;;;;;;;13.27;9.75;;;1.20;99.90;;;;;;5023241;28;20472;-40
2023/04/09 02:41:08;;;;;;;14.50;7.95;;;1.20;99.90;;;;;;5018206;28;20682;-40
2023/04/09 02:43:36;;;;;;;7.40;6.15;;;1.10;99.90;;;;;;5024260;28;20045;-39
2023/04/09 02:46:04;;;;;;;18.63;10.80;;;1.20;99.90;;;;;;5024197;28;20413;-41
2023/04/09 02:48:33;;;;;;;19.45;11.68;;;1.30;99.90;;;;;;5023581;28;20057;-40
2023/04/09 02:51:05;;;;;;;16.70;11.05;;;1.40;99.90;;;;;;5020755;28;20080;-39
2023/04/09 02:53:32;;;;;;;15.38;12.32;;;1.30;99.90;;;;;;5023667;28;20060;-39
2023/04/09 02:56:00;;;;;;;17.27;10.45;;;1.30;99.90;;;;;;5008312;28;20045;-41
2023/04/09 02:58:27;;;;;;;16.80;11.90;;;1.40;99.90;;;;;;5024598;28;20056;-40
2023/04/09 03:00:55;;;;;;;19.77;15.32;;;1.40;99.90;;;;;;5021129;28;20049;-34
2023/04/09 03:03:23;;;;;;;14.70;11.38;;;1.50;99.90;;;;;;5024296;28;20037;-36
2023/04/09 03:05:50;;;;;;;18.17;12.43;;;1.50;99.90;;;;;;5022939;28;20241;-35
2023/04/09 03:08:18;;;;;;;15.98;10.38;;;1.40;99.90;;;;;;5024652;28;20044;-49
2023/04/09 03:10:45;;;;;;;12.93;10.18;;;1.40;99.90;;;;;;5024184;28;20087;-48
2023/04/09 03:13:13;;;;;;;14.43;10.63;;;1.30;99.90;;;;;;4992732;28;20057;-49
2023/04/09 03:15:41;;;;;;;18.13;12.65;;;1.30;99.90;;;;;;5021628;28;20041;-46
2023/04/09 03:18:08;;;;;;;32.42;11.32;;;1.30;99.90;;;;;;5023803;28;20493;-48
2023/04/09 03:20:39;;;;;;;16.40;11.95;;;1.20;99.90;;;;;;5023358;28;20061;-48
2023/04/09 03:23:10;;;;;;;32.85;10.02;;;1.20;99.90;;;;;;5013291;28;20066;-48
2023/04/09 03:25:41;;;;;;;27.42;11.95;;;1.20;99.90;;;;;;5007940;28;20073;-48
2023/04/09 03:28:13;;;;;;;;;;;1.30;99.90;;;;;;5022055;28;20049;-48
2023/04/09 03:30:46;;;;;;;63.60;12.52;;;1.30;99.90;;;;;;5022883;28;19932;-48
2023/04/09 03:33:15;;;;;;;74.70;14.75;;;1.30;99.90;;;;;;5015667;28;20053;-46
2023/04/09 03:35:51;;;;;;;61.22;14.73;;;1.30;99.90;;;;;;5022001;28;20049;-48
2023/04/09 03:38:29;;;;;;;127.63;18.35;;;1.20;99.90;;;;;;5021855;28;20054;-48
2023/04/09 03:40:58;;;;;;;83.10;15.63;;;1.20;99.90;;;;;;5015151;28;20056;-47
2023/04/09 03:43:26;;;;;;;18.58;12.02;;;1.20;99.90;;;;;;5023864;28;20457;-47
2023/04/09 03:45:53;;;;;;;71.05;15.93;;;1.20;99.90;;;;;;5019204;28;20061;-47
2023/04/09 03:48:24;;;;;;;20.55;13.57;;;1.30;99.90;;;;;;5022393;28;20064;-48
2023/04/09 03:50:52;;;;;;;17.17;11.98;;;1.30;99.90;;;;;;5025859;28;20064;-46
2023/04/09 03:53:29;;;;;;;17.58;12.75;;;1.40;99.90;;;;;;5006004;28;20062;-48
2023/04/09 03:56:02;;;;;;;19.52;13.65;;;1.50;99.90;;;;;;5016428;28;20052;-47
2023/04/09 03:58:30;;;;;;;22.92;12.93;;;1.50;99.90;;;;;;5023632;28;20510;-47
2023/04/09 04:00:59;;;;;;;18.65;13.00;;;1.60;99.90;;;;;;5016463;28;20045;-48
2023/04/09 04:03:35;;;;;;;24.15;12.88;;;1.60;99.90;;;;;;5014945;28;20381;-48
2023/04/09 04:06:23;;;;;;;20.67;12.25;;;1.60;99.90;;;;;;5022215;28;20052;-47
2023/04/09 04:09:10;;;;;;;61.63;13.65;;;1.60;99.90;;;;;;5021823;28;20057;-47
2023/04/09 04:11:46;;;;;;;27.38;14.30;;;1.60;99.90;;;;;;4999434;28;20042;-48
2023/04/09 04:14:14;;;;;;;77.32;17.83;;;1.50;99.90;;;;;;5022014;28;20468;-48
2023/04/09 04:16:45;;;;;;;81.60;16.02;;;1.60;99.90;;;;;;5022887;28;20057;-48
2023/04/09 04:19:17;;;;;;;127.93;18.80;;;1.50;99.90;;;;;;5014438;28;20049;-48
2023/04/09 04:21:48;;;;;;;122.93;19.25;;;1.50;99.90;;;;;;5013841;28;20061;-47
2023/04/09 04:24:17;;;;;;;178.15;21.75;;;1.50;99.90;;;;;;5017663;28;20053;-48
2023/04/09 04:26:44;;;;;;;126.47;17.55;;;1.40;99.90;;;;;;5004632;28;20045;-48
2023/04/09 04:29:16;;;;;;;198.73;29.42;;;1.50;99.90;;;;;;5021412;28;20060;-47
2023/04/09 04:31:53;;;;;;;123.07;16.55;;;1.50;99.90;;;;;;5004576;28;20045;-47
2023/04/09 04:34:23;;;;;;;41.78;15.98;;;1.40;99.90;;;;;;5026345;28;20068;-47
2023/04/09 04:36:58;;;;;;;51.58;12.75;;;1.50;99.90;;;;;;5010720;28;20061;-47
2023/04/09 04:39:30;;;;;;;;;;;1.50;99.90;;;;;;5023885;28;20049;-47
2023/04/09 04:42:02;;;;;;;59.97;14.18;;;1.50;99.90;;;;;;5021207;28;19940;-47
2023/04/09 04:44:30;;;;;;;68.63;14.27;;;1.50;99.90;;;;;;5020716;28;20505;-47
2023/04/09 04:47:09;;;;;;;95.38;17.27;;;1.50;99.90;;;;;;5009514;28;20053;-47
2023/04/09 04:49:37;;;;;;;174.88;20.75;;;1.50;99.90;;;;;;5023362;28;20434;-47
2023/04/09 04:52:06;;;;;;;128.05;17.17;;;1.40;99.90;;;;;;5006954;28;20049;-47
2023/04/09 04:54:35;;;;;;;100.32;16.52;;;1.40;99.90;;;;;;5019654;28;20687;-48
2023/04/09 04:57:03;;;;;;;150.50;17.73;;;1.40;99.90;;;;;;5010987;28;20054;-47
2023/04/09 04:59:40;;;;;;;60.17;14.20;;;1.40;99.90;;;;;;5018534;28;20057;-35
2023/04/09 05:02:10;;;;;;;166.25;21.10;;;1.40;99.90;;;;;;5004330;28;20041;-35
2023/04/09 05:04:58;;;;;;;127.53;15.75;;;1.40;99.90;;;;;;5013914;28;20049;-35
2023/04/09 05:07:33;;;;;;;199.93;22.25;;;1.20;99.90;;;;;;5022614;28;20061;-35
2023/04/09 05:10:01;;;;;;;143.15;17.40;;;1.20;99.90;;;;;;5004846;28;20382;-36
2023/04/09 05:12:35;;;;;;;163.43;17.85;;;1.10;99.90;;;;;;5007605;28;20049;-35
2023/04/09 05:15:04;;;;;;;81.70;12.13;;;1.00;99.90;;;;;;4999489;28;20053;-35
2023/04/09 05:17:32;;;;;;;284.55;26.45;;;0.90;99.90;;;;;;5018361;28;20058;-35
2023/04/09 05:20:00;;;;;;;247.05;23.02;;;0.90;99.90;;;;;;4996665;28;20053;-35
2023/04/09 05:22:39;;;;;;;92.15;13.32;;;0.90;99.90;;;;;;5005993;28;20050;-35
2023/04/09 05:25:07;;;;;;;113.15;14.43;;;0.90;99.90;;;;;;5021071;28;20425;-35
2023/04/09 05:27:38;;;;;;;54.47;11.05;;;0.90;99.90;;;;;;5021514;28;20052;-36
2023/04/09 05:30:07;;;;;;;79.25;11.13;;;0.90;99.90;;;;;;4995611;28;20418;-35
2023/04/09 05:32:35;;;;;;;33.97;9.55;;;0.80;99.90;;;;;;5006073;28;20473;-35
2023/04/09 05:35:04;;;;;;;11.52;9.40;;;0.80;99.90;;;;;;5009654;28;20045;-35
2023/04/09 05:37:38;;;;;;;120.13;19.33;;;0.80;99.90;;;;;;5026272;28;20054;-35
2023/04/09 05:40:06;;;;;;;36.60;8.85;;;0.90;99.90;;;;;;5025057;28;20065;-35
2023/04/09 05:42:34;;;;;;;114.45;14.85;;;0.90;99.90;;;;;;5023715;28;20379;-35
2023/04/09 05:45:07;;;;;;;93.03;14.85;;;0.80;99.90;;;;;;5025190;28;20058;-35
2023/04/09 05:47:37;;;;;;;18.17;8.48;;;0.70;99.90;;;;;;5024568;28;20075;-34
2023/04/09 05:50:13;;;;;;;15.40;9.32;;;0.60;99.90;;;;;;5023052;28;20050;-35
2023/04/09 05:52:41;;;;;;;21.05;10.00;;;0.70;99.90;;;;;;5026321;28;20057;-35
2023/04/09 05:55:11;;;;;;;100.03;13.02;;;0.60;99.90;;;;;;5023756;28;20045;-35
2023/04/09 05:57:46;;;;;;;86.70;11.18;;;0.70;99.90;;;;;;5011379;28;20282;-36
2023/04/09 06:00:14;;;;;;;106.15;15.50;;;0.70;99.90;;;;;;5010266;28;20079;-35
2023/04/09 06:02:46;;;;;;;98.60;11.50;;;0.70;99.90;;;;;;5019714;28;20056;-35
2023/04/09 06:05:14;;;;;;;207.80;23.40;;;0.70;99.90;;;;;;5006709;28;20053;-36
2023/04/09 06:07:42;;;;;;;77.15;9.45;;;0.60;99.90;;;;;;5009908;28;20064;-35
2023/04/09 06:10:10;;;;;;;67.90;9.90;;;0.60;99.90;;;;;;5000024;28;20054;-35
2023/04/09 06:12:38;;;;;;;26.10;9.15;;;0.70;99.90;;;;;;5024948;28;20057;-35
2023/04/09 06:15:06;;;;;;;158.45;13.18;;;0.90;99.90;;;;;;5024841;28;20057;-35
2023/04/09 06:17:34;;;;;;;40.47;10.20;;;0.90;99.90;;;;;;5025168;28;20041;-35
2023/04/09 06:20:02;;;;;;;82.47;11.23;;;0.90;99.90;;;;;;5023705;28;20050;-35
2023/04/09 06:22:30;;;;;;;24.83;8.88;;;1.00;99.90;;;;;;5025009;28;20052;-35
2023/04/09 06:24:57;;;;;;;31.13;8.68;;;1.10;99.90;;;;;;5020821;28;20049;-36
2023/04/09 06:27:25;;;;;;;28.80;8.85;;;1.10;99.90;;;;;;5024761;28;20041;-35
2023/04/09 06:29:52;;;;;;;30.80;8.38;;;1.10;99.90;;;;;;5024763;28;20053;-35
2023/04/09 06:32:20;;;;;;;33.00;9.30;;;1.20;99.90;;;;;;5025600;28;20054;-35
2023/04/09 06:34:48;;;;;;;12.77;8.27;;;1.30;99.90;;;;;;5023520;28;20048;-35
2023/04/09 06:37:15;;;;;;;17.52;9.43;;;1.40;99.90;;;;;;5024420;28;20049;-35
2023/04/09 06:39:43;;;;;;;24.40;7.93;;;1.60;99.90;;;;;;5024983;28;20049;-35
2023/04/09 06:42:25;;;;;;;70.18;10.48;;;1.70;99.90;;;;;;5023787;28;20042;-34
2023/04/09 06:45:07;;;;;;;69.30;8.63;;;1.80;99.90;;;;;;5007176;28;20064;-35
2023/04/09 06:47:35;;;;;;;53.53;11.45;;;1.80;99.90;;;;;;5024502;28;20080;-35
2023/04/09 06:50:03;;;;;;;133.65;14.05;;;1.90;99.90;;;;;;5023010;28;20068;-35
2023/04/09 06:52:30;;;;;;;111.47;15.82;;;1.80;99.90;;;;;;5024603;28;20053;-35
2023/04/09 06:54:58;;;;;;;49.08;12.75;;;1.80;99.90;;;;;;5024132;28;20702;-34
2023/04/09 06:57:26;;;;;;;52.10;10.23;;;2.10;99.90;;;;;;5024184;28;20050;-35
2023/04/09 06:59:53;;;;;;;21.60;8.93;;;2.30;99.90;;;;;;5024921;28;20045;-35
2023/04/09 07:02:21;;;;;;;10.90;8.95;;;2.50;99.90;;;;;;5023852;28;20049;-35
2023/04/09 07:04:49;;;;;;;14.82;11.45;;;2.80;99.90;;;;;;5023748;28;20049;-35
2023/04/09 07:07:17;;;;;;;10.82;9.05;;;3.20;99.90;;;;;;5023714;28;20049;-36
2023/04/09 07:09:45;;;;;;;13.55;9.63;;;3.30;99.90;;;;;;5024865;28;20493;-35
2023/04/09 07:12:12;;;;;;;15.35;10.75;;;3.50;99.90;;;;;;5003514;28;20052;-35
2023/04/09 07:14:40;;;;;;;16.20;11.80;;;3.60;99.90;;;;;;5019164;28;20072;-36
2023/04/09 07:17:07;;;;;;;13.27;10.68;;;3.70;99.90;;;;;;5025074;28;20046;-36
2023/04/09 07:19:35;;;;;;;12.93;10.52;;;4.60;99.90;;;;;;5022742;28;20381;-35
2023/04/09 07:22:02;;;;;;;12.70;9.20;;;5.30;99.90;;;;;;5022588;28;20061;-35
2023/04/09 07:24:30;;;;;;;10.52;9.43;;;5.40;99.90;;;;;;5018814;28;20053;-35
2023/04/09 07:27:02;;;;;;;11.02;9.85;;;5.70;99.90;;;;;;5022003;28;20422;-37
2023/04/09 07:29:29;;;;;;;11.45;9.70;;;5.30;99.90;;;;;;5024138;28;20054;-35
2023/04/09 07:31:59;;;;;;;13.38;9.95;;;5.90;99.90;;;;;;5022548;28;20057;-35
2023/04/09 07:34:27;;;;;;;12.88;10.77;;;6.00;99.90;;;;;;5022708;28;20072;-35
2023/04/09 07:36:55;;;;;;;14.15;9.43;;;5.80;99.90;;;;;;5023471;28;20075;-35
2023/04/09 07:39:22;;;;;;;11.55;9.05;;;7.00;99.90;;;;;;5023127;28;20041;-35
2023/04/09 07:41:50;;;;;;;10.10;8.75;;;8.00;99.90;;;;;;5023331;28;20057;-35
2023/04/09 07:44:17;;;;;;;9.82;7.72;;;7.60;99.90;;;;;;5023406;28;20049;-48
2023/04/09 07:46:45;;;;;;;9.90;7.75;;;7.60;99.90;;;;;;5022957;28;20060;-48
2023/04/09 07:49:13;;;;;;;9.15;7.85;;;9.00;99.90;;;;;;5022399;28;20057;-49
2023/04/09 07:51:40;;;;;;;11.38;7.95;;;11.30;99.90;;;;;;5022276;28;20056;-48
2023/04/09 07:54:08;;;;;;;10.15;8.50;;;11.90;99.90;;;;;;5022563;28;20060;-48
2023/04/09 07:56:35;;;;;;;12.30;11.02;;;12.70;99.90;;;;;;5022724;28;20050;-49
2023/04/09 07:59:03;;;;;;;12.93;8.65;;;12.80;99.90;;;;;;5022265;28;20608;-48
2023/04/09 08:01:31;;;;;;;10.25;8.18;;;12.50;99.90;;;;;;5022525;28;20053;-49
2023/04/09 08:03:58;;;;;;;12.70;8.27;;;13.10;99.90;;;;;;5020216;28;20591;-48
2023/04/09 08:06:26;;;;;;;9.98;8.07;;;12.20;99.90;;;;;;5022132;28;20049;-48
2023/04/09 08:08:54;;;;;;;9.77;8.27;;;10.90;99.90;;;;;;5022652;28;20076;-48
2023/04/09 08:11:24;;;;;;;9.68;8.73;;;10.80;99.90;;;;;;5022985;28;20506;-49
2023/04/09 08:13:51;;;;;;;11.23;8.50;;;10.70;99.90;;;;;;5022708;28;20509;-48
2023/04/09 08:16:23;;;;;;;8.55;6.97;;;10.50;99.90;;;;;;5022160;28;20061;-48
2023/04/09 08:18:50;;;;;;;11.45;7.70;;;10.30;99.90;;;;;;5019111;28;20270;-48
2023/04/09 08:21:18;;;;;;;9.73;7.72;;;10.00;99.90;;;;;;5022964;28;20069;-48
2023/04/09 08:23:46;;;;;;;8.32;6.63;;;10.10;99.90;;;;;;5017460;28;20045;-48
2023/04/09 08:26:14;;;;;;;10.20;8.77;;;10.20;99.90;;;;;;5023031;28;20525;-48
2023/04/09 08:28:41;;;;;;;9.80;8.45;;;9.90;99.90;;;;;;5020759;28;20064;-48
2023/04/09 08:31:09;;;;;;;12.38;9.10;;;10.50;99.90;;;;;;5021777;28;20439;-48
2023/04/09 08:33:36;;;;;;;10.65;9.57;;;10.80;99.90;;;;;;5022443;28;20196;-48
2023/04/09 08:36:10;;;;;;;14.15;10.63;;;12.30;99.90;;;;;;5021687;28;20471;-48
2023/04/09 08:38:37;;;;;;;11.30;9.18;;;13.90;99.90;;;;;;5020495;28;20045;-48
2023/04/09 08:41:05;;;;;;;10.85;9.75;;;14.80;99.90;;;;;;5021749;28;20496;-48
2023/04/09 08:43:34;;;;;;;10.32;8.88;;;15.30;99.90;;;;;;5020189;28;20041;-48
2023/04/09 08:46:22;;;;;;;10.77;8.77;;;14.30;99.90;;;;;;5022686;28;20053;-48
2023/04/09 08:48:51;;;;;;;14.00;9.77;;;13.10;99.90;;;;;;5022127;28;20341;-48
2023/04/09 08:51:21;;;;;;;9.93;8.38;;;11.40;99.90;;;;;;5021354;28;20393;-48
2023/04/09 08:53:55;;;;;;;12.82;9.60;;;10.20;99.90;;;;;;5021361;28;20052;-37
2023/04/09 08:56:24;;;;;;;6.90;5.85;;;9.40;99.90;;;;;;5021592;28;20057;-36
2023/04/09 08:58:53;;;;;;;8.90;6.15;;;9.20;99.90;;;;;;5021950;28;20541;-36
2023/04/09 09:01:22;;;;;;;12.90;7.95;;;8.90;99.90;;;;;;5022345;28;20060;-36
2023/04/09 09:04:00;;;;;;;11.98;9.02;;;8.70;99.90;;;;;;5020640;28;20232;-36
2023/04/09 09:06:31;;;;;;;9.50;8.02;;;8.40;99.90;;;;;;5022240;28;20091;-35
2023/04/09 09:09:16;;;;;;;10.07;8.82;;;8.20;99.90;;;;;;5025714;28;20417;-36
2023/04/09 09:11:49;;;;;;;13.07;10.15;;;8.20;99.90;;;;;;5025273;28;20060;-36
2023/04/09 09:14:18;;;;;;;18.25;13.30;;;8.00;99.90;;;;;;5017013;28;20049;-37
2023/04/09 09:16:55;;;;;;;15.57;13.85;;;7.70;99.90;;;;;;5026253;28;20238;-36
2023/04/09 09:19:25;;;;;;;10.98;9.88;;;7.70;99.90;;;;;;5024843;28;20049;-37
2023/04/09 09:21:56;;;;;;;17.27;14.35;;;7.80;99.90;;;;;;5025863;28;20454;-36
2023/04/09 09:24:24;;;;;;;14.48;11.75;;;8.20;99.90;;;;;;5025165;28;20053;-36
2023/04/09 09:26:57;;;;;;;15.90;14.20;;;8.60;99.90;;;;;;5026099;28;20048;-36
2023/04/09 09:29:26;;;;;;;19.08;11.88;;;9.00;99.90;;;;;;5026031;28;20470;-36
2023/04/09 09:31:55;;;;;;;15.38;11.30;;;8.80;99.90;;;;;;5025774;28;20052;-36
2023/04/09 09:34:23;;;;;;;14.40;10.55;;;8.40;99.90;;;;;;5023772;28;20065;-36
2023/04/09 09:36:51;;;;;;;14.70;11.02;;;8.10;99.90;;;;;;5026174;28;20434;-36
2023/04/09 09:39:21;;;;;;;17.15;10.52;;;7.80;99.90;;;;;;5026031;28;20053;-36
2023/04/09 09:42:06;;;;;;;15.90;12.45;;;7.60;99.90;;;;;;5025763;28;20057;-37
2023/04/09 09:44:34;;;;;;;15.30;10.65;;;7.70;99.90;;;;;;5025781;28;20050;-36
2023/04/09 09:47:03;;;;;;;14.13;10.63;;;7.90;99.90;;;;;;5024787;28;20425;-36
2023/04/09 09:49:31;;;;;;;13.52;10.55;;;8.00;99.90;;;;;;5024719;28;20418;-36
2023/04/09 09:52:01;;;;;;;14.98;10.55;;;8.30;99.90;;;;;;5025000;28;20038;-36
2023/04/09 09:54:37;;;;;;;18.17;10.43;;;8.20;99.90;;;;;;5024450;28;20059;-36
2023/04/09 09:57:08;;;;;;;15.23;11.70;;;8.40;99.90;;;;;;5025574;28;20271;-36
2023/04/09 09:59:58;;;;;;;14.32;10.30;;;8.80;99.90;;;;;;5024858;28;20045;-36
2023/04/09 10:02:31;;;;;;;16.00;10.55;;;9.00;99.90;;;;;;5025302;28;20051;-36
2023/04/09 10:05:00;;;;;;;16.55;12.07;;;9.20;99.90;;;;;;5024432;28;20416;-36
2023/04/09 10:07:28;;;;;;;15.75;11.93;;;9.10;99.90;;;;;;5023339;28;20292;-36
2023/04/09 10:09:57;;;;;;;14.27;10.02;;;9.20;99.90;;;;;;5024968;28;20072;-36
2023/04/09 10:12:26;;;;;;;11.23;9.88;;;9.40;99.90;;;;;;5025428;28;20115;-36
2023/04/09 10:14:55;;;;;;;11.63;9.48;;;9.30;99.90;;;;;;5024844;28;20080;-36
2023/04/09 10:17:23;;;;;;;16.30;12.00;;;8.90;99.90;;;;;;5024142;28;20053;-36
2023/04/09 10:20:06;;;;;;;18.15;12.52;;;8.80;99.90;;;;;;5022631;28;20060;-36
2023/04/09 10:22:35;;;;;;;15.85;11.73;;;8.50;99.90;;;;;;5024463;28;20060;-38
2023/04/09 10:25:05;;;;;;;13.75;10.77;;;8.20;99.90;;;;;;5025249;28;20426;-37
2023/04/09 10:27:32;;;;;;;15.95;10.93;;;8.00;99.90;;;;;;5024625;28;20082;-36
2023/04/09 10:30:00;;;;;;;15.43;11.82;;;7.90;99.90;;;;;;5024550;28;20065;-36
2023/04/09 10:32:34;;;;;;;15.52;11.60;;;7.80;99.90;;;;;;5025059;28;20080;-36
2023/04/09 10:35:03;;;;;;;12.20;9.38;;;7.70;99.90;;;;;;5023027;28;20056;-36
2023/04/09 10:37:31;;;;;;;14.30;10.45;;;7.60;99.90;;;;;;5024970;28;20068;-48
2023/04/09 10:39:58;;;;;;;15.35;9.80;;;7.50;99.90;;;;;;5024862;28;20045;-48
2023/04/09 10:42:31;;;;;;;17.58;12.98;;;7.40;99.90;;;;;;5024388;28;20057;-48
2023/04/09 10:45:13;;;;;;;17.15;11.65;;;7.50;99.90;;;;;;5018415;28;20060;-48
2023/04/09 10:47:42;;;;;;;14.85;13.10;;;7.60;99.90;;;;;;5024220;28;20045;-48
2023/04/09 10:50:14;;;;;;;22.52;10.95;;;7.50;99.90;;;;;;5022938;28;20038;-48
2023/04/09 10:52:43;;;;;;;18.52;11.73;;;7.50;99.90;;;;;;5024997;28;20045;-48
2023/04/09 10:55:40;;;;;;;12.90;11.05;;;7.40;99.90;;;;;;5023839;28;20053;-48
2023/04/09 10:58:10;;;;;;;16.38;10.68;;;7.20;99.90;;;;;;5019409;28;20056;-48
2023/04/09 11:00:42;;;;;;;15.88;11.18;;;7.20;99.90;;;;;;5017237;28;20061;-49
2023/04/09 11:03:28;;;;;;;22.27;12.38;;;7.20;99.90;;;;;;5023758;28;20053;-48
2023/04/09 11:06:09;;;;;;;17.17;12.52;;;7.10;99.90;;;;;;5022692;28;20140;-48
2023/04/09 11:08:37;;;;;;;15.20;12.32;;;7.20;99.90;;;;;;5025154;28;20073;-48
2023/04/09 11:11:05;;;;;;;18.05;12.63;;;7.30;99.90;;;;;;5023145;28;20048;-48
2023/04/09 11:13:33;;;;;;;15.45;11.07;;;7.40;99.90;;;;;;5023764;28;20056;-47
2023/04/09 11:16:05;;;;;;;12.93;10.63;;;7.50;99.90;;;;;;5023659;28;20088;-47
2023/04/09 11:18:34;;;;;;;22.00;11.18;;;7.40;99.90;;;;;;5023444;28;20053;-48
2023/04/09 11:21:03;;;;;;;23.02;11.55;;;7.40;99.90;;;;;;5022989;28;20053;-48
2023/04/09 11:23:31;;;;;;;20.65;12.88;;;7.40;99.90;;;;;;5022007;28;20053;-48
2023/04/09 11:26:00;;;;;;;13.70;9.63;;;7.50;99.90;;;;;;5023888;28;20068;-48
2023/04/09 11:28:28;;;;;;;17.92;12.95;;;7.60;99.90;;;;;;5024068;28;20064;-47
2023/04/09 11:30:55;;;;;;;18.13;11.63;;;7.70;99.90;;;;;;5023158;28;20045;-49
2023/04/09 11:33:32;;;;;;;16.58;10.60;;;7.70;99.90;;;;;;5023977;28;20060;-48
2023/04/09 11:36:00;;;;;;;17.35;12.85;;;7.70;99.90;;;;;;5022685;28;20056;-48
2023/04/09 11:38:30;;;;;;;18.25;11.73;;;7.80;99.90;;;;;;5023390;28;20049;-48
2023/04/09 11:40:57;;;;;;;15.98;12.38;;;8.00;99.90;;;;;;5023968;28;20306;-48
2023/04/09 11:43:25;;;;;;;16.10;11.40;;;7.90;99.90;;;;;;5022288;28;20056;-48
2023/04/09 11:45:53;;;;;;;17.98;11.65;;;8.00;99.90;;;;;;5020152;28;20445;-48
2023/04/09 11:48:23;;;;;;;15.03;11.60;;;8.10;99.90;;;;;;5023117;28;20060;-47
2023/04/09 11:50:51;;;;;;;15.68;11.48;;;8.10;99.90;;;;;;5019072;28;20052;-48
2023/04/09 11:53:20;;;;;;;22.08;15.13;;;8.20;99.90;;;;;;5023400;28;20410;-47
2023/04/09 11:55:52;;;;;;;20.05;14.00;;;8.40;99.90;;;;;;5023005;28;20060;-48
2023/04/09 11:58:26;;;;;;;14.68;10.85;;;8.50;99.90;;;;;;5022739;28;20053;-47
2023/04/09 12:00:56;;;;;;;15.07;11.70;;;8.50;99.90;;;;;;5023408;28;20236;-47
2023/04/09 12:03:31;;;;;;;20.42;13.68;;;8.50;99.90;;;;;;5023363;28;20056;-48
2023/04/09 12:06:01;;;;;;;17.45;14.57;;;8.40;99.90;;;;;;5021554;28;20045;-47
2023/04/09 12:08:30;;;;;;;16.85;13.18;;;8.40;99.90;;;;;;5023300;28;20061;-48
2023/04/09 12:11:08;;;;;;;16.52;12.32;;;8.20;99.90;;;;;;5023032;28;20061;-47
2023/04/09 12:13:35;;;;;;;13.88;10.27;;;8.50;99.90;;;;;;5023800;28;20751;-48
2023/04/09 12:16:04;;;;;;;19.80;13.00;;;8.60;99.90;;;;;;5022785;28;20049;-48
2023/04/09 12:18:36;;;;;;;21.27;16.25;;;8.90;99.90;;;;;;5022369;28;20049;-48
2023/04/09 12:21:04;;;;;;;16.60;11.90;;;8.90;99.90;;;;;;5022619;28;20053;-48
2023/04/09 12:23:32;;;;;;;19.83;12.02;;;8.80;99.90;;;;;;5022863;28;20418;-48
2023/04/09 12:26:00;;;;;;;13.73;9.73;;;8.60;99.90;;;;;;5021380;28;20158;-47
2023/04/09 12:28:28;;;;;;;18.45;13.40;;;8.50;99.90;;;;;;5023577;28;20057;-47
2023/04/09 12:30:58;;;;;;;13.85;10.20;;;8.40;99.90;;;;;;5021298;28;20052;-47
2023/04/09 12:33:26;;;;;;;14.35;10.25;;;8.40;99.90;;;;;;5023188;28;20049;-47
2023/04/09 12:35:54;;;;;;;13.38;10.23;;;8.10;99.90;;;;;;5021293;28;20058;-47
2023/04/09 12:38:22;;;;;;;23.38;13.57;;;8.00;99.90;;;;;;5022112;28;20054;-47
2023/04/09 12:40:49;;;;;;;13.90;11.43;;;8.00;99.90;;;;;;5023254;28;20057;-48
2023/04/09 12:43:17;;;;;;;19.98;12.73;;;8.00;99.90;;;;;;5008736;28;20053;-47
2023/04/09 12:45:45;;;;;;;15.55;11.85;;;7.90;99.90;;;;;;5025622;28;20064;-47
2023/04/09 12:48:13;;;;;;;17.95;12.02;;;7.90;99.90;;;;;;5026094;28;20053;-47
2023/04/09 12:50:40;;;;;;;19.17;12.77;;;7.80;99.90;;;;;;5023745;28;20052;-48
2023/04/09 12:53:08;;;;;;;17.75;11.77;;;7.70;99.90;;;;;;5027310;28;20414;-48
2023/04/09 12:55:35;;;;;;;18.25;13.23;;;7.80;99.90;;;;;;5026113;28;20052;-47